Time;durP1;ratioP1;P1;durP2;ratioP2;P2;SDS_P1;SDS_P2;PMS_P1;PMS_P2;Temp;Humidity;BMP_temperature;BMP_pressure;BME280_temperature;BME280_humidity;BME280_pressure;Samples;Min_cycle;Max_cycle;Signal;HPM_P1;HPM_P2
2023/12/17 00:00:59;;;;;;;30.95;14.07;;;10.50;99.90;;;;;;5112572;28;20281;-65
2023/12/17 00:03:26;;;;;;;34.35;14.30;;;10.50;99.90;;;;;;5112696;28;20040;-65
2023/12/17 00:05:52;;;;;;;30.23;13.43;;;10.40;99.90;;;;;;5111624;28;20083;-65
2023/12/17 00:08:19;;;;;;;32.92;14.20;;;10.40;99.90;;;;;;5112582;28;20466;-67
2023/12/17 00:10:46;;;;;;;33.85;14.52;;;10.40;99.90;;;;;;5112624;28;20023;-66
2023/12/17 00:13:11;;;;;;;39.42;14.57;;;10.50;99.90;;;;;;5112651;28;20043;-66
2023/12/17 00:15:37;;;;;;;38.50;14.38;;;10.50;99.90;;;;;;5112332;28;20032;-66
2023/12/17 00:18:02;;;;;;;29.38;13.85;;;10.50;99.90;;;;;;5111404;28;20096;-67
2023/12/17 00:20:28;;;;;;;32.78;13.38;;;10.50;99.90;;;;;;5112326;28;20020;-66
2023/12/17 00:22:54;;;;;;;31.52;13.57;;;10.50;99.90;;;;;;5112453;28;20029;-66
2023/12/17 00:25:19;;;;;;;32.75;13.77;;;10.50;99.90;;;;;;5112498;28;20028;-66
2023/12/17 00:27:45;;;;;;;32.33;13.65;;;10.50;99.90;;;;;;5114420;28;20044;-66
2023/12/17 00:30:11;;;;;;;37.22;16.48;;;10.50;99.90;;;;;;5116455;28;20513;-66
2023/12/17 00:32:36;;;;;;;29.42;13.30;;;10.60;99.90;;;;;;5116452;28;20032;-65
2023/12/17 00:35:02;;;;;;;36.95;15.23;;;10.60;99.90;;;;;;5116327;28;20020;-67
2023/12/17 00:37:28;;;;;;;32.92;14.25;;;10.50;99.90;;;;;;5116388;28;20028;-66
2023/12/17 00:39:53;;;;;;;37.50;13.73;;;10.50;99.90;;;;;;5115351;28;20123;-65
2023/12/17 00:42:19;;;;;;;34.45;14.40;;;10.50;99.90;;;;;;5116302;28;20092;-66
2023/12/17 00:44:45;;;;;;;33.58;14.07;;;10.50;99.90;;;;;;5116282;28;20032;-66
2023/12/17 00:47:10;;;;;;;31.77;13.95;;;10.50;99.90;;;;;;5116276;28;20024;-66
2023/12/17 00:49:36;;;;;;;30.45;13.05;;;10.50;99.90;;;;;;5116035;28;20406;-66
2023/12/17 00:52:01;;;;;;;33.13;13.85;;;10.50;99.90;;;;;;5116128;28;20050;-65
2023/12/17 00:54:27;;;;;;;30.17;12.98;;;10.60;99.90;;;;;;5116036;28;20016;-67
2023/12/17 00:56:53;;;;;;;33.03;13.40;;;10.60;99.90;;;;;;5115939;28;20040;-67
2023/12/17 00:59:18;;;;;;;29.83;12.50;;;10.60;99.90;;;;;;5115945;28;20020;-66
2023/12/17 01:01:44;;;;;;;31.38;13.35;;;10.60;99.90;;;;;;5115759;28;20497;-65
2023/12/17 01:04:09;;;;;;;33.33;13.10;;;10.60;99.90;;;;;;5115976;28;20023;-66
2023/12/17 01:06:35;;;;;;;32.42;12.73;;;10.60;99.90;;;;;;5115897;28;20494;-66
2023/12/17 01:09:00;;;;;;;36.50;14.02;;;10.60;99.90;;;;;;5115827;28;20084;-66
2023/12/17 01:11:26;;;;;;;31.88;12.77;;;10.70;99.90;;;;;;5115755;28;20047;-67
2023/12/17 01:13:52;;;;;;;26.85;12.63;;;10.70;99.90;;;;;;5115787;28;20028;-67
2023/12/17 01:16:17;;;;;;;34.70;13.32;;;10.70;99.90;;;;;;5115653;28;20039;-67
2023/12/17 01:18:43;;;;;;;29.77;12.73;;;10.60;99.90;;;;;;5115743;28;20538;-67
2023/12/17 01:21:08;;;;;;;30.27;12.35;;;10.60;99.90;;;;;;5114491;28;20100;-67
2023/12/17 01:23:36;;;;;;;29.88;12.43;;;10.60;99.90;;;;;;5114609;28;20036;-67
2023/12/17 01:26:02;;;;;;;33.88;13.15;;;10.60;99.90;;;;;;5114453;28;20054;-69
2023/12/17 01:28:27;;;;;;;32.42;12.60;;;10.60;99.90;;;;;;5115466;28;20028;-67
2023/12/17 01:30:53;;;;;;;33.38;13.00;;;10.60;99.90;;;;;;5114292;28;20066;-69
2023/12/17 01:33:18;;;;;;;29.15;12.27;;;10.60;99.90;;;;;;5114323;28;20025;-68
2023/12/17 01:35:44;;;;;;;31.92;12.73;;;10.60;99.90;;;;;;5114424;28;20367;-66
2023/12/17 01:38:09;;;;;;;31.20;13.27;;;10.60;99.90;;;;;;5115006;28;20020;-67
2023/12/17 01:40:35;;;;;;;31.05;13.20;;;10.60;99.90;;;;;;5114254;28;20020;-67
2023/12/17 01:43:03;;;;;;;30.35;13.52;;;10.60;99.90;;;;;;5115222;28;20032;-66
2023/12/17 01:45:29;;;;;;;28.73;11.73;;;10.60;99.90;;;;;;5115206;28;20023;-67
2023/12/17 01:47:55;;;;;;;30.02;12.80;;;10.70;99.90;;;;;;5113858;28;20490;-67
2023/12/17 01:50:21;;;;;;;29.88;11.55;;;10.70;99.90;;;;;;5114918;28;20081;-67
2023/12/17 01:52:46;;;;;;;29.33;12.43;;;10.70;99.90;;;;;;5114897;28;20478;-68
2023/12/17 01:55:13;;;;;;;29.85;12.55;;;10.70;99.90;;;;;;5113797;28;20032;-67
2023/12/17 01:57:39;;;;;;;29.90;13.43;;;10.70;99.90;;;;;;5114802;28;20053;-69
2023/12/17 02:00:06;;;;;;;29.80;11.80;;;10.60;99.90;;;;;;5114643;28;20084;-67
2023/12/17 02:02:31;;;;;;;31.55;13.80;;;10.60;99.90;;;;;;5114824;28;20024;-67
2023/12/17 02:04:57;;;;;;;28.63;12.82;;;10.60;99.90;;;;;;5114739;28;20028;-68
2023/12/17 02:07:23;;;;;;;32.10;12.75;;;10.60;99.90;;;;;;5114719;28;20024;-66
2023/12/17 02:09:48;;;;;;;34.65;13.50;;;10.60;99.90;;;;;;5114649;28;20032;-67
2023/12/17 02:12:26;;;;;;;30.80;11.07;;;10.60;99.90;;;;;;5114595;28;20038;-67
2023/12/17 02:14:51;;;;;;;29.88;11.65;;;10.60;99.90;;;;;;5113462;28;20271;-66
2023/12/17 02:17:24;;;;;;;30.25;11.60;;;10.60;99.90;;;;;;5114353;28;20096;-66
2023/12/17 02:19:50;;;;;;;27.45;10.82;;;10.60;99.90;;;;;;5114473;28;20042;-68
2023/12/17 02:22:15;;;;;;;30.17;11.43;;;10.60;99.90;;;;;;5113361;28;20028;-67
2023/12/17 02:24:41;;;;;;;25.70;10.15;;;10.60;99.90;;;;;;5114315;28;20024;-68
2023/12/17 02:27:07;;;;;;;29.55;11.50;;;10.60;99.90;;;;;;5114383;28;20482;-66
2023/12/17 02:29:32;;;;;;;28.52;12.23;;;10.70;99.90;;;;;;5113989;28;20038;-68
2023/12/17 02:31:58;;;;;;;27.20;11.55;;;10.60;99.90;;;;;;5114208;28;20032;-67
2023/12/17 02:34:23;;;;;;;29.35;12.57;;;10.60;99.90;;;;;;5114141;28;20113;-67
2023/12/17 02:36:49;;;;;;;31.00;12.18;;;10.60;99.90;;;;;;5114050;28;20482;-66
2023/12/17 02:39:15;;;;;;;30.70;12.13;;;10.60;99.90;;;;;;5114097;28;20091;-67
2023/12/17 02:41:40;;;;;;;28.20;10.52;;;10.60;99.90;;;;;;5113950;28;20088;-67
2023/12/17 02:44:06;;;;;;;27.67;10.65;;;10.60;99.90;;;;;;5113865;28;20028;-67
2023/12/17 02:46:31;;;;;;;30.92;12.20;;;10.60;99.90;;;;;;5113822;28;20039;-67
2023/12/17 02:48:57;;;;;;;29.85;11.88;;;10.60;99.90;;;;;;5113778;28;20055;-66
2023/12/17 02:51:22;;;;;;;29.60;11.80;;;10.60;99.90;;;;;;5112116;28;20100;-67
2023/12/17 02:53:48;;;;;;;29.15;11.30;;;10.60;99.90;;;;;;5113798;28;20034;-66
2023/12/17 02:56:14;;;;;;;28.50;12.05;;;10.60;99.90;;;;;;5113693;28;20068;-66
2023/12/17 02:58:39;;;;;;;31.30;11.32;;;10.60;99.90;;;;;;5113695;28;20022;-66
2023/12/17 03:01:05;;;;;;;24.92;9.55;;;10.60;99.90;;;;;;5113486;28;20513;-66
2023/12/17 03:03:30;;;;;;;26.23;10.75;;;10.60;99.90;;;;;;5113653;28;20027;-67
2023/12/17 03:05:56;;;;;;;28.17;11.07;;;10.60;99.90;;;;;;5113626;28;20047;-68
2023/12/17 03:08:22;;;;;;;25.65;11.05;;;10.60;99.90;;;;;;5113552;28;20070;-67
2023/12/17 03:10:47;;;;;;;25.85;9.75;;;10.60;99.90;;;;;;5113516;28;20087;-67
2023/12/17 03:13:13;;;;;;;26.13;10.40;;;10.60;99.90;;;;;;5113340;28;20032;-67
2023/12/17 03:15:38;;;;;;;28.40;10.68;;;10.60;99.90;;;;;;5112287;28;20043;-67
2023/12/17 03:18:04;;;;;;;28.80;10.85;;;10.60;99.90;;;;;;5113286;28;20039;-67
2023/12/17 03:20:30;;;;;;;23.00;8.98;;;10.70;99.90;;;;;;5113259;28;20035;-68
2023/12/17 03:22:56;;;;;;;23.35;8.73;;;10.60;99.90;;;;;;5113221;28;20020;-67
2023/12/17 03:25:22;;;;;;;20.30;8.15;;;10.50;99.90;;;;;;5113183;28;20050;-70
2023/12/17 03:27:47;;;;;;;25.83;8.68;;;10.50;99.90;;;;;;5112056;28;20020;-68
2023/12/17 03:30:13;;;;;;;23.10;8.77;;;10.50;99.90;;;;;;5112910;28;20061;-68
2023/12/17 03:32:38;;;;;;;21.95;9.10;;;10.60;99.90;;;;;;5113043;28;20029;-67
2023/12/17 03:35:05;;;;;;;24.30;10.35;;;10.60;99.90;;;;;;5113261;28;20027;-68
2023/12/17 03:37:30;;;;;;;26.20;9.85;;;10.60;99.90;;;;;;5113002;28;20036;-68
2023/12/17 03:39:56;;;;;;;27.33;10.07;;;10.60;99.90;;;;;;5113011;28;20032;-68
2023/12/17 03:42:21;;;;;;;25.23;9.88;;;10.60;99.90;;;;;;5112904;28;20165;-67
2023/12/17 03:44:47;;;;;;;24.80;10.70;;;10.60;99.90;;;;;;5112914;28;20051;-68
2023/12/17 03:47:12;;;;;;;26.73;11.30;;;10.60;99.90;;;;;;5112791;28;20063;-67
2023/12/17 03:49:38;;;;;;;24.60;10.90;;;10.60;99.90;;;;;;5112664;28;20048;-68
2023/12/17 03:52:06;;;;;;;28.73;11.35;;;10.60;99.90;;;;;;5112800;28;20124;-67
2023/12/17 03:54:31;;;;;;;27.98;11.60;;;10.60;99.90;;;;;;5112825;28;20024;-67
2023/12/17 03:56:57;;;;;;;24.48;10.35;;;10.60;99.90;;;;;;5112608;28;20051;-68
2023/12/17 03:59:23;;;;;;;28.80;11.50;;;10.60;99.90;;;;;;5112690;28;20024;-68
2023/12/17 04:01:48;;;;;;;26.98;11.38;;;10.70;99.90;;;;;;5112453;28;20020;-67
2023/12/17 04:04:14;;;;;;;29.38;11.48;;;10.60;99.90;;;;;;5112595;28;20490;-68
2023/12/17 04:06:43;;;;;;;26.40;10.38;;;10.60;99.90;;;;;;5111658;28;20036;-68
2023/12/17 04:09:10;;;;;;;29.55;11.45;;;10.60;99.90;;;;;;5112670;28;20054;-68
2023/12/17 04:11:35;;;;;;;27.20;10.80;;;10.70;99.90;;;;;;5112534;28;20020;-68
2023/12/17 04:14:01;;;;;;;25.73;10.52;;;10.60;99.90;;;;;;5112557;28;20036;-68
2023/12/17 04:16:27;;;;;;;25.77;10.25;;;10.60;99.90;;;;;;5112424;28;20059;-69
2023/12/17 04:18:53;;;;;;;28.63;11.15;;;10.60;99.90;;;;;;5112603;28;20027;-67
2023/12/17 04:21:18;;;;;;;25.75;10.63;;;10.60;99.90;;;;;;5112362;28;20028;-68
2023/12/17 04:23:44;;;;;;;26.67;10.07;;;10.60;99.90;;;;;;5112536;28;20085;-68
2023/12/17 04:26:13;;;;;;;26.45;9.98;;;10.60;99.90;;;;;;5112378;28;20032;-67
2023/12/17 04:28:39;;;;;;;21.88;9.05;;;10.60;99.90;;;;;;5112498;28;20025;-68
2023/12/17 04:31:04;;;;;;;23.20;10.27;;;10.60;99.90;;;;;;5112368;28;20048;-68
2023/12/17 04:33:31;;;;;;;24.65;9.68;;;10.60;99.90;;;;;;5112530;28;20052;-67
2023/12/17 04:35:57;;;;;;;23.92;9.38;;;10.60;99.90;;;;;;5112377;28;20032;-68
2023/12/17 04:38:23;;;;;;;19.48;9.23;;;10.60;99.90;;;;;;5112286;28;20057;-68
2023/12/17 04:40:49;;;;;;;22.33;9.50;;;10.50;99.90;;;;;;5112205;28;20016;-67
2023/12/17 04:43:15;;;;;;;21.35;9.63;;;10.50;99.90;;;;;;5112337;28;20028;-67
2023/12/17 04:45:41;;;;;;;20.13;8.65;;;10.50;99.90;;;;;;5112225;28;20035;-68
2023/12/17 04:48:06;;;;;;;20.65;8.27;;;10.50;99.90;;;;;;5112152;28;20035;-68
2023/12/17 04:50:32;;;;;;;19.02;8.32;;;10.50;99.90;;;;;;5112206;28;20612;-68
2023/12/17 04:52:58;;;;;;;21.45;9.13;;;10.50;99.90;;;;;;5112247;28;20076;-67
2023/12/17 04:55:23;;;;;;;19.80;8.40;;;10.50;99.90;;;;;;5112092;28;20040;-67
2023/12/17 04:57:49;;;;;;;21.45;9.30;;;10.50;99.90;;;;;;5112160;28;20017;-66
2023/12/17 05:00:15;;;;;;;15.63;7.38;;;10.50;99.90;;;;;;5111912;28;20471;-67
2023/12/17 05:02:40;;;;;;;20.23;8.85;;;10.50;99.90;;;;;;5112136;28;20027;-67
2023/12/17 05:05:06;;;;;;;16.13;7.82;;;10.50;99.90;;;;;;5112128;28;20024;-67
2023/12/17 05:07:33;;;;;;;16.75;7.80;;;10.50;99.90;;;;;;5112140;28;20032;-67
2023/12/17 05:09:58;;;;;;;17.88;7.60;;;10.50;99.90;;;;;;5112032;28;20028;-68
2023/12/17 05:12:24;;;;;;;17.25;7.72;;;10.50;99.90;;;;;;5112023;28;20062;-68
2023/12/17 05:14:50;;;;;;;18.40;8.73;;;10.50;99.90;;;;;;5115391;28;20044;-67
2023/12/17 05:17:15;;;;;;;16.83;7.05;;;10.50;99.90;;;;;;5115523;28;20036;-67
2023/12/17 05:19:41;;;;;;;21.17;8.25;;;10.50;99.90;;;;;;5114618;28;20039;-68
2023/12/17 05:22:06;;;;;;;17.98;7.20;;;10.50;99.90;;;;;;5115652;28;20020;-67
2023/12/17 05:24:32;;;;;;;16.58;7.57;;;10.50;99.90;;;;;;5115469;28;20036;-67
2023/12/17 05:26:58;;;;;;;17.23;7.70;;;10.50;99.90;;;;;;5115518;28;20039;-67
2023/12/17 05:29:23;;;;;;;19.83;7.93;;;10.50;99.90;;;;;;5115451;28;20092;-70
2023/12/17 05:31:49;;;;;;;16.38;6.80;;;10.50;99.90;;;;;;5114344;28;20107;-67
2023/12/17 05:34:16;;;;;;;20.17;7.70;;;10.50;99.90;;;;;;5115462;28;20029;-67
2023/12/17 05:36:42;;;;;;;21.05;7.75;;;10.50;99.90;;;;;;5115293;28;20048;-68
2023/12/17 05:39:07;;;;;;;16.90;7.40;;;10.50;99.90;;;;;;5115150;28;20050;-67
2023/12/17 05:41:33;;;;;;;18.83;8.13;;;10.50;99.90;;;;;;5115259;28;20486;-66
2023/12/17 05:43:59;;;;;;;18.63;7.97;;;10.50;99.90;;;;;;5115154;28;20031;-68
2023/12/17 05:46:26;;;;;;;19.77;8.50;;;10.50;99.90;;;;;;5115052;28;20044;-67
2023/12/17 05:48:52;;;;;;;16.60;8.02;;;10.50;99.90;;;;;;5114855;28;20051;-68
2023/12/17 05:51:19;;;;;;;16.80;7.90;;;10.50;99.90;;;;;;5114063;28;20035;-67
2023/12/17 05:53:45;;;;;;;18.73;7.80;;;10.50;99.90;;;;;;5115009;28;20055;-67
2023/12/17 05:56:11;;;;;;;19.23;7.53;;;10.40;99.90;;;;;;5114857;28;20024;-67
2023/12/17 05:58:37;;;;;;;18.92;6.97;;;10.40;99.90;;;;;;5114015;28;20051;-67
2023/12/17 06:01:03;;;;;;;18.73;7.53;;;10.40;99.90;;;;;;5113682;28;20020;-66
2023/12/17 06:03:30;;;;;;;19.13;7.70;;;10.40;99.90;;;;;;5114778;28;20020;-67
2023/12/17 06:05:55;;;;;;;18.50;6.75;;;10.40;99.90;;;;;;5113738;28;20452;-66
2023/12/17 06:08:21;;;;;;;21.60;8.02;;;10.40;99.90;;;;;;5114629;28;20059;-66
2023/12/17 06:10:47;;;;;;;22.60;8.23;;;10.40;99.90;;;;;;5114662;28;20035;-67
2023/12/17 06:13:13;;;;;;;18.05;7.78;;;10.40;99.90;;;;;;5114641;28;20016;-68
2023/12/17 06:15:39;;;;;;;18.27;7.78;;;10.40;99.90;;;;;;5114371;28;20039;-68
2023/12/17 06:18:05;;;;;;;20.65;7.97;;;10.40;99.90;;;;;;5114583;28;20032;-67
2023/12/17 06:20:30;;;;;;;24.23;9.10;;;10.40;99.90;;;;;;5114475;28;20051;-68
2023/12/17 06:22:56;;;;;;;16.48;7.97;;;10.40;99.90;;;;;;5114343;28;20032;-66
2023/12/17 06:25:21;;;;;;;18.92;7.35;;;10.40;99.90;;;;;;5113369;28;20081;-66
2023/12/17 06:27:49;;;;;;;20.27;7.95;;;10.40;99.90;;;;;;5114259;28;20028;-67
2023/12/17 06:30:15;;;;;;;19.83;7.68;;;10.40;99.90;;;;;;5114181;28;20021;-68
2023/12/17 06:32:41;;;;;;;17.85;7.25;;;10.40;99.90;;;;;;5113293;28;20417;-66
2023/12/17 06:35:07;;;;;;;20.38;8.15;;;10.40;99.90;;;;;;5114200;28;20038;-66
2023/12/17 06:37:33;;;;;;;19.95;7.53;;;10.40;99.90;;;;;;5113973;28;20036;-66
2023/12/17 06:39:58;;;;;;;20.15;7.47;;;10.30;99.90;;;;;;5114150;28;20024;-69
2023/12/17 06:42:24;;;;;;;17.58;7.53;;;10.30;99.90;;;;;;5114060;28;20035;-68
2023/12/17 06:44:49;;;;;;;19.88;8.15;;;10.30;99.90;;;;;;5114004;28;20046;-68
2023/12/17 06:47:17;;;;;;;19.77;8.35;;;10.30;99.90;;;;;;5113907;28;20028;-68
2023/12/17 06:49:43;;;;;;;17.38;7.30;;;10.30;99.90;;;;;;5113788;28;20032;-68
2023/12/17 06:52:09;;;;;;;18.50;7.40;;;10.30;99.90;;;;;;5113798;28;20028;-68
2023/12/17 06:54:35;;;;;;;18.25;7.75;;;10.30;99.90;;;;;;5113875;28;20024;-68
2023/12/17 06:57:00;;;;;;;16.77;7.07;;;10.30;99.90;;;;;;5112752;28;20169;-67
2023/12/17 06:59:26;;;;;;;16.63;7.88;;;10.20;99.90;;;;;;5113710;28;20024;-68
2023/12/17 07:01:51;;;;;;;15.88;6.53;;;10.30;99.90;;;;;;5112369;28;20024;-68
2023/12/17 07:04:17;;;;;;;17.02;7.22;;;10.30;99.90;;;;;;5113582;28;20073;-67
2023/12/17 07:06:43;;;;;;;15.32;6.88;;;10.20;99.90;;;;;;5113490;28;20035;-68
2023/12/17 07:09:08;;;;;;;14.85;6.65;;;10.20;99.90;;;;;;5113550;28;20032;-67
2023/12/17 07:11:34;;;;;;;15.40;6.03;;;10.20;99.90;;;;;;5113662;28;20050;-67
2023/12/17 07:14:00;;;;;;;13.95;6.47;;;10.10;99.90;;;;;;5113437;28;20024;-67
2023/12/17 07:16:28;;;;;;;13.63;5.57;;;10.10;99.90;;;;;;5112276;28;20510;-67
2023/12/17 07:18:53;;;;;;;12.15;5.63;;;10.10;99.90;;;;;;5113574;28;20024;-68
2023/12/17 07:21:19;;;;;;;15.93;6.30;;;10.10;99.90;;;;;;5113195;28;20043;-67
2023/12/17 07:23:45;;;;;;;16.45;6.70;;;10.10;99.90;;;;;;5113280;28;20024;-68
2023/12/17 07:26:11;;;;;;;15.02;5.28;;;10.00;99.90;;;;;;5113320;28;20031;-68
2023/12/17 07:28:37;;;;;;;13.20;5.57;;;10.10;99.90;;;;;;5112337;28;20454;-68
2023/12/17 07:31:03;;;;;;;13.50;6.50;;;10.10;99.90;;;;;;5112011;28;20054;-67
2023/12/17 07:33:29;;;;;;;13.13;5.40;;;10.10;99.90;;;;;;5113166;28;20024;-67
2023/12/17 07:35:55;;;;;;;12.60;5.55;;;10.10;99.90;;;;;;5112539;28;20036;-66
2023/12/17 07:38:20;;;;;;;13.25;5.53;;;10.10;99.90;;;;;;5111893;28;20032;-66
2023/12/17 07:40:46;;;;;;;12.90;5.82;;;10.10;99.90;;;;;;5112899;28;20099;-67
2023/12/17 07:43:11;;;;;;;13.20;5.70;;;10.10;99.90;;;;;;5112886;28;20088;-67
2023/12/17 07:45:37;;;;;;;13.18;5.15;;;10.10;99.90;;;;;;5112690;28;20029;-68
2023/12/17 07:48:03;;;;;;;15.00;6.20;;;10.10;99.90;;;;;;5112814;28;20024;-66
2023/12/17 07:50:29;;;;;;;14.18;6.07;;;10.10;99.90;;;;;;5112608;28;20044;-67
2023/12/17 07:52:55;;;;;;;11.35;5.25;;;10.20;99.90;;;;;;5112685;28;20055;-68
2023/12/17 07:55:21;;;;;;;14.45;5.80;;;10.20;99.90;;;;;;5112651;28;20083;-68
2023/12/17 07:57:47;;;;;;;13.05;6.03;;;10.20;99.90;;;;;;5111776;28;20020;-67
2023/12/17 08:00:13;;;;;;;16.15;6.65;;;10.10;99.90;;;;;;5112597;28;20049;-67
2023/12/17 08:02:39;;;;;;;15.00;6.55;;;10.10;99.90;;;;;;5112558;28;20020;-67
2023/12/17 08:05:05;;;;;;;17.40;6.82;;;10.10;99.90;;;;;;5112508;28;20050;-67
2023/12/17 08:07:32;;;;;;;15.63;6.68;;;10.10;99.90;;;;;;5112484;28;20049;-67
2023/12/17 08:09:58;;;;;;;17.67;7.10;;;10.10;99.90;;;;;;5112588;28;20023;-68
2023/12/17 08:12:23;;;;;;;14.70;6.10;;;10.10;99.90;;;;;;5112510;28;20062;-68
2023/12/17 08:14:49;;;;;;;15.98;6.60;;;10.10;99.90;;;;;;5112538;28;20028;-68
2023/12/17 08:17:15;;;;;;;15.27;6.60;;;10.10;99.90;;;;;;5112351;28;20035;-68
2023/12/17 08:19:42;;;;;;;13.80;5.97;;;10.10;99.90;;;;;;5112328;28;20024;-69
2023/12/17 08:22:10;;;;;;;17.80;7.03;;;10.10;99.90;;;;;;5111472;28;20012;-69
2023/12/17 08:24:36;;;;;;;13.15;5.82;;;10.10;99.90;;;;;;5112453;28;20028;-69
2023/12/17 08:27:02;;;;;;;13.10;5.90;;;10.10;99.90;;;;;;5112511;28;20032;-67
2023/12/17 08:29:29;;;;;;;15.02;5.75;;;10.00;99.90;;;;;;5094411;28;20028;-68
2023/12/17 08:31:55;;;;;;;12.68;6.10;;;10.00;99.90;;;;;;5112160;28;20084;-68
2023/12/17 08:34:24;;;;;;;10.75;5.28;;;10.00;99.90;;;;;;5112230;28;20016;-68
2023/12/17 08:36:50;;;;;;;11.18;5.13;;;10.00;99.90;;;;;;5112154;28;20028;-69
2023/12/17 08:39:16;;;;;;;14.30;5.95;;;10.00;99.90;;;;;;5112135;28;20042;-69
2023/12/17 08:41:42;;;;;;;11.05;5.05;;;10.00;99.90;;;;;;5112185;28;20021;-68
2023/12/17 08:44:08;;;;;;;11.98;5.03;;;10.00;99.90;;;;;;5111106;28;20093;-68
2023/12/17 08:46:34;;;;;;;15.02;5.80;;;10.00;99.90;;;;;;5111051;28;20092;-67
2023/12/17 08:49:01;;;;;;;13.07;5.03;;;10.00;99.90;;;;;;5113136;28;20036;-68
2023/12/17 08:51:27;;;;;;;14.02;5.03;;;10.00;99.90;;;;;;5115034;28;20387;-68
2023/12/17 08:53:53;;;;;;;13.55;4.85;;;10.00;99.90;;;;;;5116050;28;20024;-68
2023/12/17 08:56:18;;;;;;;10.18;4.88;;;10.00;99.90;;;;;;5115980;28;20124;-67
2023/12/17 08:58:44;;;;;;;12.02;5.40;;;10.00;99.90;;;;;;5116166;28;20024;-66
2023/12/17 09:01:10;;;;;;;12.98;4.95;;;9.90;99.90;;;;;;5115764;28;20533;-68
2023/12/17 09:03:36;;;;;;;10.50;4.15;;;10.00;99.90;;;;;;5115821;28;20074;-67
2023/12/17 09:06:01;;;;;;;13.93;4.72;;;10.00;99.90;;;;;;5115837;28;20051;-68
2023/12/17 09:08:27;;;;;;;10.35;4.22;;;10.00;99.90;;;;;;5115826;28;20062;-67
2023/12/17 09:10:52;;;;;;;8.73;3.83;;;10.00;99.90;;;;;;5115906;28;20060;-67
2023/12/17 09:13:18;;;;;;;11.80;6.18;;;9.90;99.90;;;;;;5115752;28;20107;-68
2023/12/17 09:15:43;;;;;;;8.57;4.18;;;9.90;99.90;;;;;;5115395;28;20032;-67
2023/12/17 09:18:10;;;;;;;9.10;4.07;;;9.90;99.90;;;;;;5114698;28;20028;-66
2023/12/17 09:20:35;;;;;;;8.00;3.80;;;9.80;99.90;;;;;;5115576;28;20024;-66
2023/12/17 09:23:02;;;;;;;8.70;4.10;;;9.80;99.90;;;;;;5115488;28;20113;-67
2023/12/17 09:25:28;;;;;;;9.18;4.25;;;9.80;99.90;;;;;;5115512;28;20027;-66
2023/12/17 09:27:53;;;;;;;10.98;4.90;;;9.70;99.90;;;;;;5115356;28;20024;-66
2023/12/17 09:30:19;;;;;;;13.80;5.28;;;9.80;99.90;;;;;;5115123;28;20061;-67
2023/12/17 09:32:45;;;;;;;10.68;4.40;;;9.70;99.90;;;;;;5115221;28;20036;-66
2023/12/17 09:35:11;;;;;;;14.27;5.68;;;9.70;99.90;;;;;;5115242;28;20036;-68
2023/12/17 09:37:37;;;;;;;12.43;5.68;;;9.70;99.90;;;;;;5114163;28;20028;-67
2023/12/17 09:40:05;;;;;;;13.93;5.60;;;9.60;99.90;;;;;;5115198;28;20430;-66
2023/12/17 09:42:31;;;;;;;13.30;6.05;;;9.50;99.90;;;;;;5115113;28;20489;-67
2023/12/17 09:44:57;;;;;;;14.23;5.85;;;9.50;99.90;;;;;;5115016;28;20051;-67
2023/12/17 09:47:23;;;;;;;19.23;6.45;;;9.40;99.90;;;;;;5115047;28;20028;-67
2023/12/17 09:49:49;;;;;;;18.23;6.90;;;9.40;99.90;;;;;;5114839;28;20063;-66
2023/12/17 09:52:18;;;;;;;16.90;6.18;;;9.40;99.90;;;;;;5113897;28;20040;-66
2023/12/17 09:54:47;;;;;;;14.80;6.25;;;9.30;99.90;;;;;;5114945;28;20028;-66
2023/12/17 09:57:13;;;;;;;19.33;7.78;;;9.30;99.90;;;;;;5114783;28;20102;-67
2023/12/17 09:59:40;;;;;;;18.33;7.50;;;9.30;99.90;;;;;;5114399;28;20051;-66
2023/12/17 10:02:06;;;;;;;19.98;8.48;;;9.30;99.90;;;;;;5114661;28;20020;-66
2023/12/17 10:04:32;;;;;;;18.77;8.05;;;9.20;99.90;;;;;;5114704;28;20027;-65
2023/12/17 10:06:57;;;;;;;18.00;7.65;;;9.30;99.90;;;;;;5114514;28;20032;-66
2023/12/17 10:09:23;;;;;;;19.27;8.38;;;9.30;99.90;;;;;;5114618;28;20054;-68
2023/12/17 10:11:49;;;;;;;17.80;7.85;;;9.30;99.90;;;;;;5114529;28;20054;-67
2023/12/17 10:14:26;;;;;;;27.08;10.25;;;9.30;99.90;;;;;;5114426;28;20024;-66
2023/12/17 10:16:52;;;;;;;25.33;11.23;;;9.30;99.90;;;;;;5114348;28;20035;-66
2023/12/17 10:19:18;;;;;;;24.92;10.30;;;9.30;99.90;;;;;;5114422;28;20032;-67
2023/12/17 10:21:44;;;;;;;26.95;10.38;;;9.20;99.90;;;;;;5114215;28;20032;-67
2023/12/17 10:24:10;;;;;;;28.27;11.10;;;9.20;99.90;;;;;;5114317;28;20025;-66
2023/12/17 10:26:46;;;;;;;28.98;11.52;;;9.10;99.90;;;;;;5114184;28;20028;-67
2023/12/17 10:29:20;;;;;;;26.35;10.40;;;9.20;99.90;;;;;;5114291;28;20028;-66
2023/12/17 10:31:46;;;;;;;23.30;9.32;;;9.20;99.90;;;;;;5113954;28;20024;-66
2023/12/17 10:34:19;;;;;;;25.63;10.80;;;9.10;99.90;;;;;;5114168;28;20024;-66
2023/12/17 10:36:47;;;;;;;14.88;7.35;;;9.10;99.90;;;;;;5113997;28;20039;-66
2023/12/17 10:39:14;;;;;;;21.98;9.20;;;9.10;99.90;;;;;;5113920;28;20044;-66
2023/12/17 10:41:41;;;;;;;33.08;12.35;;;9.10;99.90;;;;;;5114037;28;20020;-66
2023/12/17 10:44:12;;;;;;;27.98;10.98;;;9.10;99.90;;;;;;5113978;28;20410;-66
2023/12/17 10:46:44;;;;;;;30.20;12.50;;;9.10;99.90;;;;;;5111300;28;20028;-66
2023/12/17 10:49:11;;;;;;;27.80;12.03;;;9.00;99.90;;;;;;5113861;28;20040;-65
2023/12/17 10:51:41;;;;;;;29.15;10.93;;;9.00;99.90;;;;;;5113958;28;20050;-67
2023/12/17 10:54:08;;;;;;;27.80;11.23;;;9.00;99.90;;;;;;5113894;28;20031;-66
2023/12/17 10:56:50;;;;;;;24.67;11.07;;;8.90;99.90;;;;;;5096379;28;20039;-67
2023/12/17 10:59:21;;;;;;;24.58;10.85;;;8.90;99.90;;;;;;5112946;28;20021;-66
2023/12/17 11:01:49;;;;;;;24.48;9.55;;;8.90;99.90;;;;;;5091017;28;20025;-68
2023/12/17 11:04:14;;;;;;;23.05;10.63;;;8.90;99.90;;;;;;5091850;28;20040;-66
2023/12/17 11:06:40;;;;;;;22.40;9.85;;;8.80;99.90;;;;;;5092756;28;20032;-66
2023/12/17 11:09:06;;;;;;;24.88;8.93;;;8.80;99.90;;;;;;5092285;28;20025;-67
2023/12/17 11:11:32;;;;;;;23.17;8.95;;;8.80;99.90;;;;;;5091990;28;20102;-66
2023/12/17 11:13:58;;;;;;;22.83;8.55;;;8.80;99.90;;;;;;5093040;28;20028;-67
2023/12/17 11:16:25;;;;;;;20.27;8.23;;;8.80;99.90;;;;;;5092726;28;20096;-66
2023/12/17 11:18:53;;;;;;;21.95;9.65;;;8.80;99.90;;;;;;5092596;28;20021;-66
2023/12/17 11:21:19;;;;;;;25.30;9.45;;;8.90;99.90;;;;;;5092624;28;20023;-66
2023/12/17 11:23:54;;;;;;;24.98;9.88;;;8.90;99.90;;;;;;5092651;28;20028;-66
2023/12/17 11:26:20;;;;;;;27.25;11.38;;;8.90;99.90;;;;;;5092764;28;20043;-66
2023/12/17 11:28:46;;;;;;;21.63;8.80;;;8.90;99.90;;;;;;5092214;28;20052;-66
2023/12/17 11:31:12;;;;;;;21.20;8.70;;;8.90;99.90;;;;;;5092269;28;20020;-65
2023/12/17 11:33:39;;;;;;;19.33;8.63;;;8.90;99.90;;;;;;5092571;28;20028;-66
2023/12/17 11:36:08;;;;;;;21.90;9.32;;;9.00;99.90;;;;;;5092439;28;20039;-66
2023/12/17 11:38:35;;;;;;;22.42;8.50;;;9.00;99.90;;;;;;5092343;28;20021;-66
2023/12/17 11:41:01;;;;;;;19.75;9.05;;;9.10;99.90;;;;;;5092261;28;20025;-65
2023/12/17 11:43:27;;;;;;;25.25;10.55;;;9.10;99.90;;;;;;5092403;28;20033;-66
2023/12/17 11:45:54;;;;;;;22.88;9.10;;;9.20;99.90;;;;;;5092125;28;20033;-67
2023/12/17 11:48:20;;;;;;;23.17;9.45;;;9.20;99.90;;;;;;5092116;28;20054;-68
2023/12/17 11:50:52;;;;;;;23.17;9.60;;;9.30;99.90;;;;;;5092195;28;20118;-67
2023/12/17 11:53:22;;;;;;;30.23;11.73;;;9.30;99.90;;;;;;5092327;28;20023;-67
2023/12/17 11:55:52;;;;;;;21.13;10.18;;;9.30;99.90;;;;;;5092169;28;20028;-66
2023/12/17 11:58:20;;;;;;;26.45;10.20;;;9.30;99.90;;;;;;5092005;28;20043;-66
2023/12/17 12:01:03;;;;;;;24.95;10.48;;;9.30;99.90;;;;;;5090659;28;20033;-67
2023/12/17 12:03:29;;;;;;;25.45;10.43;;;9.40;99.90;;;;;;5092147;28;20060;-67
2023/12/17 12:05:59;;;;;;;23.38;8.80;;;9.40;99.90;;;;;;5092264;28;20028;-67
2023/12/17 12:08:26;;;;;;;28.55;11.90;;;9.40;99.90;;;;;;5092048;28;20034;-66
2023/12/17 12:10:52;;;;;;;29.02;10.07;;;9.50;99.90;;;;;;5090889;28;20062;-67
2023/12/17 12:13:18;;;;;;;25.10;9.95;;;9.50;99.90;;;;;;5092079;28;20032;-66
2023/12/17 12:15:43;;;;;;;24.13;8.90;;;9.50;99.90;;;;;;5091873;28;20052;-65
2023/12/17 12:18:20;;;;;;;26.38;9.73;;;9.60;99.90;;;;;;5091935;28;20051;-66
2023/12/17 12:20:46;;;;;;;28.20;9.63;;;9.60;99.90;;;;;;5091804;28;20087;-67
2023/12/17 12:23:11;;;;;;;27.83;10.98;;;9.70;99.90;;;;;;5092911;28;20041;-66
2023/12/17 12:25:38;;;;;;;22.48;9.00;;;9.70;99.90;;;;;;5096151;28;20062;-66
2023/12/17 12:28:25;;;;;;;26.33;10.40;;;9.80;99.90;;;;;;5096139;28;20020;-65
2023/12/17 12:30:53;;;;;;;24.00;10.07;;;9.90;99.90;;;;;;5095104;28;20047;-66